sensor_id;sensor_type;location;lat;lon;timestamp;pressure;altitude;pressure_sealevel;temperature;humidity
57114;BME280;42994;51.606;9.988;2023-04-05T00:01:51;99871.28;;;0.82;100.00
57114;BME280;42994;51.606;9.988;2023-04-05T00:04:18;99871.41;;;0.81;100.00
57114;BME280;42994;51.606;9.988;2023-04-05T00:06:46;99865.47;;;0.77;100.00
57114;BME280;42994;51.606;9.988;2023-04-05T00:09:16;99862.75;;;0.66;100.00
57114;BME280;42994;51.606;9.988;2023-04-05T00:11:43;99864.22;;;0.70;100.00
57114;BME280;42994;51.606;9.988;2023-04-05T00:14:10;99858.63;;;0.62;100.00
57114;BME280;42994;51.606;9.988;2023-04-05T00:16:38;99870.22;;;0.72;100.00
57114;BME280;42994;51.606;9.988;2023-04-05T00:19:04;99868.78;;;0.68;100.00
57114;BME280;42994;51.606;9.988;2023-04-05T00:21:31;99865.25;;;0.67;100.00
57114;BME280;42994;51.606;9.988;2023-04-05T00:23:59;99870.16;;;0.61;100.00
57114;BME280;42994;51.606;9.988;2023-04-05T00:26:25;99860.09;;;0.53;100.00
57114;BME280;42994;51.606;9.988;2023-04-05T00:28:55;99865.09;;;0.45;100.00
57114;BME280;42994;51.606;9.988;2023-04-05T00:31:22;99858.75;;;0.47;100.00
57114;BME280;42994;51.606;9.988;2023-04-05T00:33:50;99861.59;;;0.44;100.00
57114;BME280;42994;51.606;9.988;2023-04-05T00:36:19;99859.50;;;0.49;100.00
57114;BME280;42994;51.606;9.988;2023-04-05T00:38:46;99852.31;;;0.51;100.00
57114;BME280;42994;51.606;9.988;2023-04-05T00:41:14;99847.25;;;0.48;100.00
57114;BME280;42994;51.606;9.988;2023-04-05T00:43:41;99844.72;;;0.47;100.00
57114;BME280;42994;51.606;9.988;2023-04-05T00:46:07;99855.59;;;0.42;100.00
57114;BME280;42994;51.606;9.988;2023-04-05T00:48:35;99853.81;;;0.30;100.00
57114;BME280;42994;51.606;9.988;2023-04-05T00:51:03;99845.16;;;0.28;100.00
57114;BME280;42994;51.606;9.988;2023-04-05T00:53:33;99849.56;;;0.27;100.00
57114;BME280;42994;51.606;9.988;2023-04-05T00:56:00;99849.97;;;0.08;100.00
57114;BME280;42994;51.606;9.988;2023-04-05T00:58:29;99839.59;;;-0.21;100.00
57114;BME280;42994;51.606;9.988;2023-04-05T01:01:01;99834.03;;;-0.16;100.00
57114;BME280;42994;51.606;9.988;2023-04-05T01:03:31;99835.06;;;-0.18;100.00
57114;BME280;42994;51.606;9.988;2023-04-05T01:06:09;99828.06;;;-0.05;100.00
57114;BME280;42994;51.606;9.988;2023-04-05T01:08:44;99832.06;;;-0.12;100.00
57114;BME280;42994;51.606;9.988;2023-04-05T01:11:15;99834.53;;;-0.36;100.00
57114;BME280;42994;51.606;9.988;2023-04-05T01:13:44;99828.22;;;-0.34;100.00
57114;BME280;42994;51.606;9.988;2023-04-05T01:16:12;99832.38;;;-0.44;100.00
57114;BME280;42994;51.606;9.988;2023-04-05T01:18:39;99837.91;;;-0.34;100.00
57114;BME280;42994;51.606;9.988;2023-04-05T01:24:29;99853.94;;;-0.25;100.00
57114;BME280;42994;51.606;9.988;2023-04-05T01:27:06;99846.97;;;-0.26;100.00
57114;BME280;42994;51.606;9.988;2023-04-05T01:29:56;99846.94;;;-0.39;100.00
57114;BME280;42994;51.606;9.988;2023-04-05T01:32:38;99843.78;;;-0.44;100.00
57114;BME280;42994;51.606;9.988;2023-04-05T01:35:15;99835.56;;;-0.39;100.00
57114;BME280;42994;51.606;9.988;2023-04-05T01:37:44;99842.09;;;-0.45;100.00
57114;BME280;42994;51.606;9.988;2023-04-05T01:40:14;99839.97;;;-0.52;100.00
57114;BME280;42994;51.606;9.988;2023-04-05T01:42:42;99845.13;;;-0.51;100.00
57114;BME280;42994;51.606;9.988;2023-04-05T01:45:10;99839.78;;;-0.49;100.00
57114;BME280;42994;51.606;9.988;2023-04-05T01:47:37;99837.88;;;-0.47;100.00
57114;BME280;42994;51.606;9.988;2023-04-05T01:50:05;99837.97;;;-0.49;100.00
57114;BME280;42994;51.606;9.988;2023-04-05T01:52:32;99841.63;;;-0.51;100.00
57114;BME280;42994;51.606;9.988;2023-04-05T01:54:59;99841.13;;;-0.56;100.00
57114;BME280;42994;51.606;9.988;2023-04-05T01:57:25;99838.88;;;-0.63;100.00
57114;BME280;42994;51.606;9.988;2023-04-05T01:59:52;99837.19;;;-0.64;100.00
57114;BME280;42994;51.606;9.988;2023-04-05T02:02:20;99848.75;;;-0.66;100.00
57114;BME280;42994;51.606;9.988;2023-04-05T02:04:47;99843.66;;;-0.82;100.00
57114;BME280;42994;51.606;9.988;2023-04-05T02:07:14;99835.84;;;-0.84;100.00
57114;BME280;42994;51.606;9.988;2023-04-05T02:09:40;99846.38;;;-0.84;100.00
57114;BME280;42994;51.606;9.988;2023-04-05T02:12:07;99844.97;;;-0.89;100.00
57114;BME280;42994;51.606;9.988;2023-04-05T02:14:33;99834.34;;;-0.88;100.00
57114;BME280;42994;51.606;9.988;2023-04-05T02:17:00;99843.00;;;-0.86;100.00
57114;BME280;42994;51.606;9.988;2023-04-05T02:19:28;99833.03;;;-0.95;100.00
57114;BME280;42994;51.606;9.988;2023-04-05T02:22:01;99835.97;;;-1.00;100.00
57114;BME280;42994;51.606;9.988;2023-04-05T02:24:28;99827.72;;;-1.08;100.00
57114;BME280;42994;51.606;9.988;2023-04-05T02:26:54;99823.31;;;-1.07;100.00
57114;BME280;42994;51.606;9.988;2023-04-05T02:29:23;99825.28;;;-1.11;100.00
57114;BME280;42994;51.606;9.988;2023-04-05T02:31:51;99829.25;;;-1.18;100.00
57114;BME280;42994;51.606;9.988;2023-04-05T02:34:18;99823.34;;;-1.22;100.00
57114;BME280;42994;51.606;9.988;2023-04-05T02:36:46;99821.94;;;-1.27;100.00
57114;BME280;42994;51.606;9.988;2023-04-05T02:39:12;99821.94;;;-1.27;100.00
57114;BME280;42994;51.606;9.988;2023-04-05T02:41:39;99827.94;;;-1.25;100.00
57114;BME280;42994;51.606;9.988;2023-04-05T02:44:08;99819.59;;;-1.32;100.00
57114;BME280;42994;51.606;9.988;2023-04-05T02:46:35;99823.09;;;-1.46;100.00
57114;BME280;42994;51.606;9.988;2023-04-05T02:49:03;99827.47;;;-1.46;100.00
57114;BME280;42994;51.606;9.988;2023-04-05T02:51:32;99819.50;;;-1.45;100.00
57114;BME280;42994;51.606;9.988;2023-04-05T02:54:04;99826.66;;;-1.47;100.00
57114;BME280;42994;51.606;9.988;2023-04-05T02:56:33;99820.72;;;-1.50;100.00
57114;BME280;42994;51.606;9.988;2023-04-05T02:59:02;99825.34;;;-1.54;100.00
57114;BME280;42994;51.606;9.988;2023-04-05T03:01:29;99828.25;;;-1.59;100.00
57114;BME280;42994;51.606;9.988;2023-04-05T03:03:57;99829.38;;;-1.63;100.00
57114;BME280;42994;51.606;9.988;2023-04-05T03:06:24;99834.75;;;-1.64;100.00
57114;BME280;42994;51.606;9.988;2023-04-05T03:08:50;99837.38;;;-1.79;100.00
57114;BME280;42994;51.606;9.988;2023-04-05T03:11:23;99834.44;;;-1.74;100.00
57114;BME280;42994;51.606;9.988;2023-04-05T03:13:54;99826.38;;;-1.71;100.00
57114;BME280;42994;51.606;9.988;2023-04-05T03:16:41;99823.09;;;-1.75;100.00
57114;BME280;42994;51.606;9.988;2023-04-05T03:19:17;99823.94;;;-1.74;100.00
57114;BME280;42994;51.606;9.988;2023-04-05T03:21:48;99822.34;;;-1.62;100.00
57114;BME280;42994;51.606;9.988;2023-04-05T03:24:29;99819.25;;;-1.69;100.00
57114;BME280;42994;51.606;9.988;2023-04-05T03:27:02;99815.94;;;-1.72;100.00
57114;BME280;42994;51.606;9.988;2023-04-05T03:29:35;99816.88;;;-1.74;100.00
57114;BME280;42994;51.606;9.988;2023-04-05T03:32:10;99818.00;;;-1.78;100.00
57114;BME280;42994;51.606;9.988;2023-04-05T03:34:44;99818.31;;;-1.82;100.00
57114;BME280;42994;51.606;9.988;2023-04-05T03:37:14;99814.25;;;-1.88;100.00
57114;BME280;42994;51.606;9.988;2023-04-05T03:39:46;99805.59;;;-1.90;100.00
57114;BME280;42994;51.606;9.988;2023-04-05T03:42:15;99794.06;;;-1.87;100.00
57114;BME280;42994;51.606;9.988;2023-04-05T03:44:43;99801.00;;;-1.86;100.00
57114;BME280;42994;51.606;9.988;2023-04-05T03:47:10;99798.50;;;-1.88;100.00
57114;BME280;42994;51.606;9.988;2023-04-05T03:49:39;99803.09;;;-1.91;100.00
57114;BME280;42994;51.606;9.988;2023-04-05T03:52:05;99799.50;;;-1.90;100.00
57114;BME280;42994;51.606;9.988;2023-04-05T03:54:32;99794.25;;;-2.05;100.00
57114;BME280;42994;51.606;9.988;2023-04-05T03:56:59;99794.78;;;-2.14;100.00
57114;BME280;42994;51.606;9.988;2023-04-05T03:59:29;99796.19;;;-2.08;100.00
57114;BME280;42994;51.606;9.988;2023-04-05T04:01:57;99792.56;;;-2.06;100.00
57114;BME280;42994;51.606;9.988;2023-04-05T04:04:25;99792.56;;;-2.06;100.00
57114;BME280;42994;51.606;9.988;2023-04-05T04:06:52;99796.13;;;-2.07;100.00
57114;BME280;42994;51.606;9.988;2023-04-05T04:09:23;99788.41;;;-2.10;100.00
57114;BME280;42994;51.606;9.988;2023-04-05T04:11:49;99787.78;;;-2.14;100.00
57114;BME280;42994;51.606;9.988;2023-04-05T04:14:19;99782.53;;;-2.14;100.00
57114;BME280;42994;51.606;9.988;2023-04-05T04:17:05;99784.56;;;-2.19;100.00
57114;BME280;42994;51.606;9.988;2023-04-05T04:19:58;99787.06;;;-2.46;100.00
57114;BME280;42994;51.606;9.988;2023-04-05T04:23:03;99789.75;;;-2.47;100.00
57114;BME280;42994;51.606;9.988;2023-04-05T04:25:31;99779.63;;;-2.39;100.00
57114;BME280;42994;51.606;9.988;2023-04-05T04:28:19;99782.19;;;-2.38;100.00
57114;BME280;42994;51.606;9.988;2023-04-05T04:31:02;99779.63;;;-2.39;100.00
57114;BME280;42994;51.606;9.988;2023-04-05T04:33:53;99786.75;;;-2.41;100.00
57114;BME280;42994;51.606;9.988;2023-04-05T04:36:38;99792.88;;;-2.41;100.00
57114;BME280;42994;51.606;9.988;2023-04-05T04:39:23;99792.22;;;-2.44;100.00
57114;BME280;42994;51.606;9.988;2023-04-05T04:42:23;99797.88;;;-2.52;100.00
57114;BME280;42994;51.606;9.988;2023-04-05T04:45:18;99795.19;;;-2.51;100.00
57114;BME280;42994;51.606;9.988;2023-04-05T04:47:49;99791.81;;;-2.53;100.00
57114;BME280;42994;51.606;9.988;2023-04-05T04:50:39;99791.59;;;-2.64;100.00
57114;BME280;42994;51.606;9.988;2023-04-05T04:53:06;99794.22;;;-2.64;100.00
57114;BME280;42994;51.606;9.988;2023-04-05T04:55:33;99790.78;;;-2.96;100.00
57114;BME280;42994;51.606;9.988;2023-04-05T04:58:02;99802.09;;;-2.80;100.00
57114;BME280;42994;51.606;9.988;2023-04-05T05:00:34;99796.53;;;-2.74;100.00
57114;BME280;42994;51.606;9.988;2023-04-05T05:03:02;99800.91;;;-2.74;100.00
57114;BME280;42994;51.606;9.988;2023-04-05T05:05:28;99803.44;;;-2.73;100.00
57114;BME280;42994;51.606;9.988;2023-04-05T05:07:56;99814.91;;;-2.74;100.00
57114;BME280;42994;51.606;9.988;2023-04-05T05:10:23;99815.97;;;-2.78;100.00
57114;BME280;42994;51.606;9.988;2023-04-05T05:12:56;99816.25;;;-2.82;100.00
57114;BME280;42994;51.606;9.988;2023-04-05T05:15:23;99812.69;;;-2.81;100.00
57114;BME280;42994;51.606;9.988;2023-04-05T05:17:52;99810.94;;;-2.81;100.00
57114;BME280;42994;51.606;9.988;2023-04-05T05:20:20;99822.41;;;-2.83;100.00
57114;BME280;42994;51.606;9.988;2023-04-05T05:22:47;99819.03;;;-2.85;100.00
57114;BME280;42994;51.606;9.988;2023-04-05T05:25:15;99826.91;;;-2.85;100.00
57114;BME280;42994;51.606;9.988;2023-04-05T05:27:42;99826.06;;;-2.86;100.00
57114;BME280;42994;51.606;9.988;2023-04-05T05:30:10;99821.66;;;-2.85;100.00
57114;BME280;42994;51.606;9.988;2023-04-05T05:32:37;99823.19;;;-2.81;100.00
57114;BME280;42994;51.606;9.988;2023-04-05T05:35:04;99821.41;;;-2.81;100.00
57114;BME280;42994;51.606;9.988;2023-04-05T05:37:33;99822.09;;;-2.77;100.00
57114;BME280;42994;51.606;9.988;2023-04-05T05:40:00;99822.41;;;-2.83;100.00
57114;BME280;42994;51.606;9.988;2023-04-05T05:42:28;99831.16;;;-2.83;100.00
57114;BME280;42994;51.606;9.988;2023-04-05T05:44:56;99825.81;;;-2.81;100.00
57114;BME280;42994;51.606;9.988;2023-04-05T05:47:23;99823.09;;;-2.80;100.00
57114;BME280;42994;51.606;9.988;2023-04-05T05:49:49;99828.09;;;-2.75;100.00
57114;BME280;42994;51.606;9.988;2023-04-05T05:52:16;99826.47;;;-2.78;100.00
57114;BME280;42994;51.606;9.988;2023-04-05T05:54:43;99824.59;;;-2.76;100.00
57114;BME280;42994;51.606;9.988;2023-04-05T05:57:09;99821.22;;;-2.78;100.00
57114;BME280;42994;51.606;9.988;2023-04-05T05:59:37;99824.34;;;-2.71;100.00
57114;BME280;42994;51.606;9.988;2023-04-05T06:02:04;99826.97;;;-2.71;100.00
57114;BME280;42994;51.606;9.988;2023-04-05T06:04:31;99814.63;;;-2.69;100.00
57114;BME280;42994;51.606;9.988;2023-04-05T06:06:58;99826.97;;;-2.71;100.00
57114;BME280;42994;51.606;9.988;2023-04-05T06:09:26;99825.13;;;-2.69;100.00
57114;BME280;42994;51.606;9.988;2023-04-05T06:11:53;99815.44;;;-2.68;100.00
57114;BME280;42994;51.606;9.988;2023-04-05T06:14:21;99821.38;;;-2.65;100.00
57114;BME280;42994;51.606;9.988;2023-04-05T06:16:49;99821.75;;;-2.87;100.00
57114;BME280;42994;51.606;9.988;2023-04-05T06:19:15;99813.72;;;-2.84;100.00
57114;BME280;42994;51.606;9.988;2023-04-05T06:21:42;99817.25;;;-2.69;100.00
57114;BME280;42994;51.606;9.988;2023-04-05T06:24:10;99814.78;;;-2.72;100.00
57114;BME280;42994;51.606;9.988;2023-04-05T06:26:37;99810.41;;;-2.72;100.00
57114;BME280;42994;51.606;9.988;2023-04-05T06:29:04;99817.66;;;-2.61;100.00
57114;BME280;42994;51.606;9.988;2023-04-05T06:31:32;99813.75;;;-2.54;100.00
57114;BME280;42994;51.606;9.988;2023-04-05T06:34:01;99810.59;;;-2.44;100.00
57114;BME280;42994;51.606;9.988;2023-04-05T06:36:29;99807.44;;;-2.35;100.00
57114;BME280;42994;51.606;9.988;2023-04-05T06:38:58;99806.38;;;-2.33;100.00
57114;BME280;42994;51.606;9.988;2023-04-05T06:41:31;99803.41;;;-2.26;100.00
57114;BME280;42994;51.606;9.988;2023-04-05T06:44:08;99800.91;;;-2.14;100.00
57114;BME280;42994;51.606;9.988;2023-04-05T06:46:35;99796.94;;;-2.06;100.00
57114;BME280;42994;51.606;9.988;2023-04-05T06:49:03;99801.78;;;-1.99;100.00
57114;BME280;42994;51.606;9.988;2023-04-05T06:51:45;99799.06;;;-1.97;100.00
57114;BME280;42994;51.606;9.988;2023-04-05T06:54:11;99796.88;;;-1.90;100.00
57114;BME280;42994;51.606;9.988;2023-04-05T06:56:38;99804.28;;;-1.83;100.00
57114;BME280;42994;51.606;9.988;2023-04-05T06:59:05;99795.31;;;-1.79;100.00
57114;BME280;42994;51.606;9.988;2023-04-05T07:01:32;99800.00;;;-1.69;100.00
57114;BME280;42994;51.606;9.988;2023-04-05T07:03:59;99800.28;;;-1.74;100.00
57114;BME280;42994;51.606;9.988;2023-04-05T07:06:27;99791.16;;;-1.68;100.00
57114;BME280;42994;51.606;9.988;2023-04-05T07:08:54;99790.41;;;-1.56;100.00
57114;BME280;42994;51.606;9.988;2023-04-05T07:11:21;99785.41;;;-1.46;100.00
57114;BME280;42994;51.606;9.988;2023-04-05T07:13:48;99784.56;;;-1.47;100.00
57114;BME280;42994;51.606;9.988;2023-04-05T07:16:14;99787.00;;;-1.29;100.00
57114;BME280;42994;51.606;9.988;2023-04-05T07:18:43;99793.16;;;-1.16;100.00
57114;BME280;42994;51.606;9.988;2023-04-05T07:21:10;99789.84;;;-1.05;100.00
57114;BME280;42994;51.606;9.988;2023-04-05T07:23:38;99783.53;;;-1.03;100.00
57114;BME280;42994;51.606;9.988;2023-04-05T07:26:05;99783.59;;;-0.90;100.00
57114;BME280;42994;51.606;9.988;2023-04-05T07:28:33;99783.91;;;-0.94;100.00
57114;BME280;42994;51.606;9.988;2023-04-05T07:31:00;99777.63;;;-0.79;100.00
57114;BME280;42994;51.606;9.988;2023-04-05T07:33:27;99779.88;;;-0.73;100.00
57114;BME280;42994;51.606;9.988;2023-04-05T07:35:54;99780.28;;;-0.66;100.00
57114;BME280;42994;51.606;9.988;2023-04-05T07:38:22;99777.38;;;-0.62;100.00
57114;BME280;42994;51.606;9.988;2023-04-05T07:40:50;99784.13;;;-0.57;100.00
57114;BME280;42994;51.606;9.988;2023-04-05T07:43:18;99778.22;;;-0.48;100.00
57114;BME280;42994;51.606;9.988;2023-04-05T07:45:47;99773.19;;;-0.39;100.00
57114;BME280;42994;51.606;9.988;2023-04-05T07:48:13;99785.16;;;-0.07;100.00
57114;BME280;42994;51.606;9.988;2023-04-05T07:50:40;99778.28;;;-0.10;100.00
57114;BME280;42994;51.606;9.988;2023-04-05T07:53:12;99786.91;;;0.05;100.00
57114;BME280;42994;51.606;9.988;2023-04-05T07:55:39;99784.16;;;0.32;100.00
57114;BME280;42994;51.606;9.988;2023-04-05T07:58:07;99786.25;;;0.40;100.00
57114;BME280;42994;51.606;9.988;2023-04-05T08:00:37;99788.72;;;0.30;100.00
57114;BME280;42994;51.606;9.988;2023-04-05T08:03:04;99783.94;;;0.48;100.00
57114;BME280;42994;51.606;9.988;2023-04-05T08:05:31;99790.69;;;0.52;100.00
57114;BME280;42994;51.606;9.988;2023-04-05T08:07:57;99789.25;;;0.72;100.00
57114;BME280;42994;51.606;9.988;2023-04-05T08:10:24;99793.84;;;0.94;100.00
57114;BME280;42994;51.606;9.988;2023-04-05T08:12:51;99789.53;;;0.93;100.00
57114;BME280;42994;51.606;9.988;2023-04-05T08:15:20;99793.53;;;1.23;100.00
57114;BME280;42994;51.606;9.988;2023-04-05T08:17:46;99790.66;;;1.26;100.00
57114;BME280;42994;51.606;9.988;2023-04-05T08:20:13;99772.00;;;1.41;100.00
57114;BME280;42994;51.606;9.988;2023-04-05T08:22:40;99787.09;;;1.63;100.00
57114;BME280;42994;51.606;9.988;2023-04-05T08:25:15;99785.59;;;1.59;100.00
57114;BME280;42994;51.606;9.988;2023-04-05T08:27:45;99776.44;;;1.76;100.00
57114;BME280;42994;51.606;9.988;2023-04-05T08:30:12;99775.72;;;1.85;100.00
57114;BME280;42994;51.606;9.988;2023-04-05T08:32:42;99777.75;;;1.70;100.00
57114;BME280;42994;51.606;9.988;2023-04-05T08:35:09;99773.59;;;2.01;100.00
57114;BME280;42994;51.606;9.988;2023-04-05T08:37:35;99767.72;;;2.09;100.00
57114;BME280;42994;51.606;9.988;2023-04-05T08:40:03;99774.69;;;2.10;100.00
57114;BME280;42994;51.606;9.988;2023-04-05T08:42:35;99764.22;;;2.31;100.00
57114;BME280;42994;51.606;9.988;2023-04-05T08:45:10;99766.53;;;2.47;100.00
57114;BME280;42994;51.606;9.988;2023-04-05T08:47:44;99765.72;;;3.01;100.00
57114;BME280;42994;51.606;9.988;2023-04-05T08:50:13;99769.06;;;3.36;100.00
57114;BME280;42994;51.606;9.988;2023-04-05T08:52:45;99760.09;;;3.27;100.00
57114;BME280;42994;51.606;9.988;2023-04-05T08:55:21;99753.03;;;3.16;100.00
57114;BME280;42994;51.606;9.988;2023-04-05T08:58:00;99758.63;;;3.55;100.00
57114;BME280;42994;51.606;9.988;2023-04-05T09:00:33;99755.91;;;3.66;100.00
57114;BME280;42994;51.606;9.988;2023-04-05T09:03:02;99751.38;;;3.99;100.00
57114;BME280;42994;51.606;9.988;2023-04-05T09:05:35;99743.53;;;4.59;100.00
57114;BME280;42994;51.606;9.988;2023-04-05T09:08:05;99745.66;;;4.75;100.00
57114;BME280;42994;51.606;9.988;2023-04-05T09:10:37;99738.75;;;4.43;100.00
57114;BME280;42994;51.606;9.988;2023-04-05T09:13:09;99730.47;;;4.37;98.37
57114;BME280;42994;51.606;9.988;2023-04-05T09:15:39;99718.34;;;4.44;97.03
57114;BME280;42994;51.606;9.988;2023-04-05T09:22:10;99733.78;;;4.79;98.17
57114;BME280;42994;51.606;9.988;2023-04-05T09:24:40;99733.72;;;4.50;97.05
57114;BME280;42994;51.606;9.988;2023-04-05T09:27:12;99727.84;;;4.47;96.12
57114;BME280;42994;51.606;9.988;2023-04-05T09:29:41;99720.81;;;4.36;93.21
57114;BME280;42994;51.606;9.988;2023-04-05T09:32:25;99716.25;;;4.48;90.53
57114;BME280;42994;51.606;9.988;2023-04-05T09:35:01;99712.78;;;4.57;90.57
57114;BME280;42994;51.606;9.988;2023-04-05T09:37:32;99715.88;;;4.62;89.37
57114;BME280;42994;51.606;9.988;2023-04-05T09:40:06;99706.06;;;4.53;86.84
57114;BME280;42994;51.606;9.988;2023-04-05T09:42:42;99702.34;;;4.75;83.57
57114;BME280;42994;51.606;9.988;2023-04-05T09:45:16;99707.09;;;4.81;86.43
57114;BME280;42994;51.606;9.988;2023-04-05T09:48:11;99704.31;;;4.73;85.69
57114;BME280;42994;51.606;9.988;2023-04-05T09:50:43;99695.47;;;4.72;84.03
57114;BME280;42994;51.606;9.988;2023-04-05T09:53:15;99704.31;;;4.82;84.82
57114;BME280;42994;51.606;9.988;2023-04-05T09:55:46;99697.94;;;4.54;80.83
57114;BME280;42994;51.606;9.988;2023-04-05T09:58:18;99686.97;;;4.78;79.22
57114;BME280;42994;51.606;9.988;2023-04-05T10:00:49;99690.19;;;4.82;80.96
57114;BME280;42994;51.606;9.988;2023-04-05T10:03:23;99692.00;;;4.81;79.17
57114;BME280;42994;51.606;9.988;2023-04-05T10:05:53;99692.28;;;4.78;81.00
57114;BME280;42994;51.606;9.988;2023-04-05T10:08:25;99691.44;;;4.78;79.89
57114;BME280;42994;51.606;9.988;2023-04-05T10:10:52;99685.84;;;4.91;79.97
57114;BME280;42994;51.606;9.988;2023-04-05T10:13:21;99691.28;;;4.79;78.25
57114;BME280;42994;51.606;9.988;2023-04-05T10:15:53;99681.66;;;4.88;77.87
57114;BME280;42994;51.606;9.988;2023-04-05T10:18:23;99677.63;;;4.84;76.69
57114;BME280;42994;51.606;9.988;2023-04-05T10:20:56;99672.84;;;5.07;76.54
57114;BME280;42994;51.606;9.988;2023-04-05T10:23:27;99678.16;;;4.97;77.49
57114;BME280;42994;51.606;9.988;2023-04-05T10:26:09;99676.78;;;5.03;79.46
57114;BME280;42994;51.606;9.988;2023-04-05T10:28:46;99681.38;;;5.01;78.40
57114;BME280;42994;51.606;9.988;2023-04-05T10:31:24;99671.44;;;4.84;76.49
57114;BME280;42994;51.606;9.988;2023-04-05T10:33:58;99670.34;;;4.76;74.92
57114;BME280;42994;51.606;9.988;2023-04-05T10:36:35;99655.75;;;4.61;73.55
57114;BME280;42994;51.606;9.988;2023-04-05T10:39:11;99661.41;;;4.97;75.79
57114;BME280;42994;51.606;9.988;2023-04-05T10:41:46;99656.50;;;5.02;76.79
57114;BME280;42994;51.606;9.988;2023-04-05T10:44:14;99662.78;;;5.01;77.46
57114;BME280;42994;51.606;9.988;2023-04-05T10:46:44;99653.97;;;5.10;77.92
57114;BME280;42994;51.606;9.988;2023-04-05T10:49:17;99666.00;;;4.95;78.20
57114;BME280;42994;51.606;9.988;2023-04-05T10:51:49;99653.28;;;4.79;76.01
57114;BME280;42994;51.606;9.988;2023-04-05T10:54:19;99655.53;;;4.93;77.69
57114;BME280;42994;51.606;9.988;2023-04-05T10:57:02;99659.72;;;4.96;77.49
57114;BME280;42994;51.606;9.988;2023-04-05T10:59:32;99653.41;;;5.07;77.37
57114;BME280;42994;51.606;9.988;2023-04-05T11:02:05;99656.78;;;4.99;76.34
57114;BME280;42994;51.606;9.988;2023-04-05T11:04:44;99650.19;;;4.84;76.97
57114;BME280;42994;51.606;9.988;2023-04-05T11:07:12;99656.63;;;4.81;77.67
57114;BME280;42994;51.606;9.988;2023-04-05T11:09:50;99653.28;;;4.89;77.91
57114;BME280;42994;51.606;9.988;2023-04-05T11:13:08;99660.00;;;5.03;78.45
57114;BME280;42994;51.606;9.988;2023-04-05T11:15:38;99660.41;;;4.88;77.71
57114;BME280;42994;51.606;9.988;2023-04-05T11:18:09;99656.91;;;4.97;76.80
57114;BME280;42994;51.606;9.988;2023-04-05T11:20:42;99653.41;;;5.07;78.31
57114;BME280;42994;51.606;9.988;2023-04-05T11:23:14;99657.06;;;4.96;78.98
57114;BME280;42994;51.606;9.988;2023-04-05T11:25:49;99651.03;;;4.84;78.38
57114;BME280;42994;51.606;9.988;2023-04-05T11:28:28;99651.31;;;4.91;78.29
57114;BME280;42994;51.606;9.988;2023-04-05T11:31:11;99642.38;;;4.92;78.61
57114;BME280;42994;51.606;9.988;2023-04-05T11:33:58;99636.22;;;5.01;78.78
57114;BME280;42994;51.606;9.988;2023-04-05T11:36:38;99625.72;;;5.19;78.91
57114;BME280;42994;51.606;9.988;2023-04-05T11:39:28;99627.78;;;5.25;78.33
57114;BME280;42994;51.606;9.988;2023-04-05T11:42:01;99616.50;;;5.13;77.30
57114;BME280;42994;51.606;9.988;2023-04-05T11:44:38;99615.22;;;5.17;76.75
57114;BME280;42994;51.606;9.988;2023-04-05T11:47:05;99608.94;;;5.18;76.47
57114;BME280;42994;51.606;9.988;2023-04-05T11:49:32;99617.19;;;5.15;78.11
57114;BME280;42994;51.606;9.988;2023-04-05T11:52:10;99617.97;;;5.45;76.83
57114;BME280;42994;51.606;9.988;2023-04-05T11:54:37;99614.91;;;5.40;78.02
57114;BME280;42994;51.606;9.988;2023-04-05T11:57:10;99609.06;;;5.27;78.09
57114;BME280;42994;51.606;9.988;2023-04-05T11:59:37;99606.78;;;5.42;77.17
57114;BME280;42994;51.606;9.988;2023-04-05T12:02:05;99585.13;;;5.27;72.13
57114;BME280;42994;51.606;9.988;2023-04-05T12:04:33;99600.66;;;5.31;75.25
57114;BME280;42994;51.606;9.988;2023-04-05T12:07:11;99596.88;;;5.34;76.00
57114;BME280;42994;51.606;9.988;2023-04-05T12:09:57;99593.75;;;5.48;77.08
57114;BME280;42994;51.606;9.988;2023-04-05T12:12:26;99586.03;;;5.55;74.75
57114;BME280;42994;51.606;9.988;2023-04-05T12:14:58;99576.34;;;5.64;73.08
57114;BME280;42994;51.606;9.988;2023-04-05T12:17:41;99582.94;;;5.59;73.04
57114;BME280;42994;51.606;9.988;2023-04-05T12:20:09;99575.91;;;5.68;72.99
57114;BME280;42994;51.606;9.988;2023-04-05T12:22:37;99586.81;;;5.75;74.20
57114;BME280;42994;51.606;9.988;2023-04-05T12:25:08;99581.31;;;5.76;73.00
57114;BME280;42994;51.606;9.988;2023-04-05T12:27:36;99577.22;;;5.82;72.07
57114;BME280;42994;51.606;9.988;2023-04-05T12:30:14;99569.97;;;5.84;71.89
57114;BME280;42994;51.606;9.988;2023-04-05T12:32:45;99563.31;;;5.98;71.23
57114;BME280;42994;51.606;9.988;2023-04-05T12:35:21;99564.41;;;6.05;71.40
57114;BME280;42994;51.606;9.988;2023-04-05T12:37:51;99568.75;;;6.06;73.02
57114;BME280;42994;51.606;9.988;2023-04-05T12:40:22;99561.00;;;6.13;70.91
57114;BME280;42994;51.606;9.988;2023-04-05T12:42:51;99548.56;;;6.13;70.20
57114;BME280;42994;51.606;9.988;2023-04-05T12:45:22;99548.59;;;6.04;69.16
57114;BME280;42994;51.606;9.988;2023-04-05T12:47:51;99544.13;;;5.94;68.70
57114;BME280;42994;51.606;9.988;2023-04-05T12:50:25;99539.91;;;6.02;67.59
57114;BME280;42994;51.606;9.988;2023-04-05T12:53:06;99550.97;;;6.07;69.87
57114;BME280;42994;51.606;9.988;2023-04-05T12:56:08;99539.50;;;6.24;70.94
57114;BME280;42994;51.606;9.988;2023-04-05T12:58:47;99546.41;;;6.35;71.29
57114;BME280;42994;51.606;9.988;2023-04-05T13:01:26;99533.63;;;6.57;71.40
57114;BME280;42994;51.606;9.988;2023-04-05T13:03:59;99535.31;;;6.58;69.87
57114;BME280;42994;51.606;9.988;2023-04-05T13:06:27;99525.19;;;6.61;70.40
57114;BME280;42994;51.606;9.988;2023-04-05T13:08:54;99533.56;;;6.66;70.89
57114;BME280;42994;51.606;9.988;2023-04-05T13:11:24;99513.59;;;6.88;67.93
57114;BME280;42994;51.606;9.988;2023-04-05T13:13:52;99514.88;;;6.84;68.26
57114;BME280;42994;51.606;9.988;2023-04-05T13:16:23;99518.03;;;6.80;67.93
57114;BME280;42994;51.606;9.988;2023-04-05T13:18:50;99519.91;;;6.87;68.88
57114;BME280;42994;51.606;9.988;2023-04-05T13:21:19;99507.47;;;6.70;67.41
57114;BME280;42994;51.606;9.988;2023-04-05T13:23:47;99503.69;;;6.81;67.75
57114;BME280;42994;51.606;9.988;2023-04-05T13:26:14;99510.28;;;6.95;67.25